sensor_id;sensor_type;location;lat;lon;timestamp;temperature;humidity
43697;DHT22;29301;47.620;19.560;2022-11-27T00:01:15;4.10;99.90
43697;DHT22;29301;47.620;19.560;2022-11-27T00:03:41;4.10;99.90
43697;DHT22;29301;47.620;19.560;2022-11-27T00:06:11;3.90;99.90
43697;DHT22;29301;47.620;19.560;2022-11-27T00:08:37;3.90;99.90
43697;DHT22;29301;47.620;19.560;2022-11-27T00:11:08;3.90;99.90
43697;DHT22;29301;47.620;19.560;2022-11-27T00:13:34;4.00;99.90
43697;DHT22;29301;47.620;19.560;2022-11-27T00:16:01;4.10;99.90
43697;DHT22;29301;47.620;19.560;2022-11-27T00:18:27;4.10;99.90
43697;DHT22;29301;47.620;19.560;2022-11-27T00:20:52;4.10;99.90
43697;DHT22;29301;47.620;19.560;2022-11-27T00:23:18;4.20;99.90
43697;DHT22;29301;47.620;19.560;2022-11-27T00:25:53;4.10;99.90
43697;DHT22;29301;47.620;19.560;2022-11-27T00:28:19;4.20;99.90
43697;DHT22;29301;47.620;19.560;2022-11-27T00:30:45;4.30;99.90
43697;DHT22;29301;47.620;19.560;2022-11-27T00:33:11;4.30;99.90
43697;DHT22;29301;47.620;19.560;2022-11-27T00:35:40;4.30;99.90
43697;DHT22;29301;47.620;19.560;2022-11-27T00:38:06;4.40;99.90
43697;DHT22;29301;47.620;19.560;2022-11-27T00:40:32;4.30;99.90
43697;DHT22;29301;47.620;19.560;2022-11-27T00:42:58;4.30;99.90
43697;DHT22;29301;47.620;19.560;2022-11-27T00:45:23;4.30;99.90
43697;DHT22;29301;47.620;19.560;2022-11-27T00:47:49;4.40;99.90
43697;DHT22;29301;47.620;19.560;2022-11-27T00:50:15;4.40;99.90
43697;DHT22;29301;47.620;19.560;2022-11-27T00:52:40;4.30;99.90
43697;DHT22;29301;47.620;19.560;2022-11-27T00:55:07;4.40;99.90
43697;DHT22;29301;47.620;19.560;2022-11-27T00:57:33;4.40;99.90
43697;DHT22;29301;47.620;19.560;2022-11-27T00:59:58;4.30;99.90
43697;DHT22;29301;47.620;19.560;2022-11-27T01:02:24;4.30;99.90
43697;DHT22;29301;47.620;19.560;2022-11-27T01:04:50;4.40;99.90
43697;DHT22;29301;47.620;19.560;2022-11-27T01:07:15;4.40;99.90
43697;DHT22;29301;47.620;19.560;2022-11-27T01:09:41;4.40;99.90
43697;DHT22;29301;47.620;19.560;2022-11-27T01:12:07;4.50;99.90
43697;DHT22;29301;47.620;19.560;2022-11-27T01:14:33;4.50;99.90
43697;DHT22;29301;47.620;19.560;2022-11-27T01:16:59;4.50;99.90
43697;DHT22;29301;47.620;19.560;2022-11-27T01:19:25;4.50;99.90
43697;DHT22;29301;47.620;19.560;2022-11-27T01:21:50;4.50;99.90
43697;DHT22;29301;47.620;19.560;2022-11-27T01:24:16;4.50;99.90
43697;DHT22;29301;47.620;19.560;2022-11-27T01:26:43;4.60;99.90
43697;DHT22;29301;47.620;19.560;2022-11-27T01:29:09;4.60;99.90
43697;DHT22;29301;47.620;19.560;2022-11-27T01:31:35;4.60;99.90
43697;DHT22;29301;47.620;19.560;2022-11-27T01:34:06;4.60;99.90
43697;DHT22;29301;47.620;19.560;2022-11-27T01:36:33;4.60;99.90
43697;DHT22;29301;47.620;19.560;2022-11-27T01:38:59;4.60;99.90
43697;DHT22;29301;47.620;19.560;2022-11-27T01:41:34;4.70;99.90
43697;DHT22;29301;47.620;19.560;2022-11-27T01:44:03;4.70;99.90
43697;DHT22;29301;47.620;19.560;2022-11-27T01:46:54;4.70;99.90
43697;DHT22;29301;47.620;19.560;2022-11-27T01:49:29;4.70;99.90
43697;DHT22;29301;47.620;19.560;2022-11-27T01:54:28;4.60;99.90
43697;DHT22;29301;47.620;19.560;2022-11-27T01:56:59;4.60;99.90
43697;DHT22;29301;47.620;19.560;2022-11-27T01:59:27;4.60;99.90
43697;DHT22;29301;47.620;19.560;2022-11-27T02:01:53;4.60;99.90
43697;DHT22;29301;47.620;19.560;2022-11-27T02:04:19;4.60;99.90
43697;DHT22;29301;47.620;19.560;2022-11-27T02:06:45;4.60;99.90
43697;DHT22;29301;47.620;19.560;2022-11-27T02:09:10;4.60;99.90
43697;DHT22;29301;47.620;19.560;2022-11-27T02:17:02;4.60;99.90
43697;DHT22;29301;47.620;19.560;2022-11-27T02:19:56;4.70;99.90
43697;DHT22;29301;47.620;19.560;2022-11-27T02:22:49;4.70;99.90
43697;DHT22;29301;47.620;19.560;2022-11-27T02:30:56;4.70;99.90
43697;DHT22;29301;47.620;19.560;2022-11-27T02:33:25;4.70;99.90
43697;DHT22;29301;47.620;19.560;2022-11-27T02:36:01;4.70;99.90
43697;DHT22;29301;47.620;19.560;2022-11-27T02:38:37;4.60;99.90
43697;DHT22;29301;47.620;19.560;2022-11-27T02:41:28;4.60;99.90
43697;DHT22;29301;47.620;19.560;2022-11-27T02:43:56;4.60;99.90
43697;DHT22;29301;47.620;19.560;2022-11-27T02:46:23;4.60;99.90
43697;DHT22;29301;47.620;19.560;2022-11-27T02:48:54;4.60;99.90
43697;DHT22;29301;47.620;19.560;2022-11-27T02:51:31;4.60;99.90
43697;DHT22;29301;47.620;19.560;2022-11-27T02:54:03;4.70;99.90
43697;DHT22;29301;47.620;19.560;2022-11-27T02:56:31;4.70;99.90
43697;DHT22;29301;47.620;19.560;2022-11-27T02:59:09;4.70;99.90
43697;DHT22;29301;47.620;19.560;2022-11-27T03:01:41;4.70;99.90
43697;DHT22;29301;47.620;19.560;2022-11-27T03:04:16;4.70;99.90
43697;DHT22;29301;47.620;19.560;2022-11-27T03:06:47;4.70;99.90
43697;DHT22;29301;47.620;19.560;2022-11-27T03:09:19;4.70;99.90
43697;DHT22;29301;47.620;19.560;2022-11-27T03:11:47;4.70;99.90
43697;DHT22;29301;47.620;19.560;2022-11-27T03:14:13;4.70;99.90
43697;DHT22;29301;47.620;19.560;2022-11-27T03:16:50;4.80;99.90
43697;DHT22;29301;47.620;19.560;2022-11-27T03:19:31;4.80;99.90
43697;DHT22;29301;47.620;19.560;2022-11-27T03:22:03;4.90;99.90
43697;DHT22;29301;47.620;19.560;2022-11-27T03:24:31;4.90;99.90
43697;DHT22;29301;47.620;19.560;2022-11-27T03:26:58;4.90;99.90
43697;DHT22;29301;47.620;19.560;2022-11-27T03:29:40;4.90;99.90
43697;DHT22;29301;47.620;19.560;2022-11-27T03:32:08;4.90;99.90
43697;DHT22;29301;47.620;19.560;2022-11-27T03:34:34;4.80;99.90
43697;DHT22;29301;47.620;19.560;2022-11-27T03:37:00;4.80;99.90
43697;DHT22;29301;47.620;19.560;2022-11-27T03:39:26;4.90;99.90
43697;DHT22;29301;47.620;19.560;2022-11-27T03:42:02;4.90;99.90
43697;DHT22;29301;47.620;19.560;2022-11-27T03:44:57;4.90;99.90
43697;DHT22;29301;47.620;19.560;2022-11-27T03:48:30;4.90;99.90
43697;DHT22;29301;47.620;19.560;2022-11-27T03:57:19;4.90;99.90
43697;DHT22;29301;47.620;19.560;2022-11-27T03:59:48;5.00;99.90
43697;DHT22;29301;47.620;19.560;2022-11-27T04:02:24;4.90;99.90
43697;DHT22;29301;47.620;19.560;2022-11-27T04:04:52;4.90;99.90
43697;DHT22;29301;47.620;19.560;2022-11-27T04:07:17;4.90;99.90
43697;DHT22;29301;47.620;19.560;2022-11-27T04:09:43;5.00;99.90
43697;DHT22;29301;47.620;19.560;2022-11-27T04:12:09;5.00;99.90
43697;DHT22;29301;47.620;19.560;2022-11-27T04:14:34;5.00;99.90
43697;DHT22;29301;47.620;19.560;2022-11-27T04:17:00;5.00;99.90
43697;DHT22;29301;47.620;19.560;2022-11-27T04:19:25;5.00;99.90
43697;DHT22;29301;47.620;19.560;2022-11-27T04:21:51;5.00;99.90
43697;DHT22;29301;47.620;19.560;2022-11-27T04:24:17;5.00;99.90
43697;DHT22;29301;47.620;19.560;2022-11-27T04:26:42;5.10;99.90
43697;DHT22;29301;47.620;19.560;2022-11-27T04:29:08;5.00;99.90
43697;DHT22;29301;47.620;19.560;2022-11-27T04:31:34;5.10;99.90
43697;DHT22;29301;47.620;19.560;2022-11-27T04:33:59;5.00;99.90
43697;DHT22;29301;47.620;19.560;2022-11-27T04:36:25;5.10;99.90
43697;DHT22;29301;47.620;19.560;2022-11-27T04:38:50;5.10;99.90
43697;DHT22;29301;47.620;19.560;2022-11-27T04:41:16;5.10;99.90
43697;DHT22;29301;47.620;19.560;2022-11-27T04:43:42;5.10;99.90
43697;DHT22;29301;47.620;19.560;2022-11-27T04:46:07;5.10;99.90
43697;DHT22;29301;47.620;19.560;2022-11-27T04:48:34;5.00;99.90
43697;DHT22;29301;47.620;19.560;2022-11-27T04:51:00;5.10;99.90
43697;DHT22;29301;47.620;19.560;2022-11-27T04:53:25;5.10;99.90
43697;DHT22;29301;47.620;19.560;2022-11-27T04:55:51;5.10;99.90
43697;DHT22;29301;47.620;19.560;2022-11-27T04:58:17;5.10;99.90
43697;DHT22;29301;47.620;19.560;2022-11-27T05:00:42;5.10;99.90
43697;DHT22;29301;47.620;19.560;2022-11-27T05:03:08;5.10;99.90
43697;DHT22;29301;47.620;19.560;2022-11-27T05:05:34;5.10;99.90
43697;DHT22;29301;47.620;19.560;2022-11-27T05:08:00;5.10;99.90
43697;DHT22;29301;47.620;19.560;2022-11-27T05:10:25;5.10;99.90
43697;DHT22;29301;47.620;19.560;2022-11-27T05:12:51;5.10;99.90
43697;DHT22;29301;47.620;19.560;2022-11-27T05:15:16;5.10;99.90
43697;DHT22;29301;47.620;19.560;2022-11-27T05:17:42;5.20;99.90
43697;DHT22;29301;47.620;19.560;2022-11-27T05:20:08;5.20;99.90
43697;DHT22;29301;47.620;19.560;2022-11-27T05:22:34;5.10;99.90
43697;DHT22;29301;47.620;19.560;2022-11-27T05:24:59;5.10;99.90
43697;DHT22;29301;47.620;19.560;2022-11-27T05:27:25;5.20;99.90
43697;DHT22;29301;47.620;19.560;2022-11-27T05:29:51;5.20;99.90
43697;DHT22;29301;47.620;19.560;2022-11-27T05:32:16;5.20;99.90
43697;DHT22;29301;47.620;19.560;2022-11-27T05:34:42;5.10;99.90
43697;DHT22;29301;47.620;19.560;2022-11-27T05:37:08;5.10;99.90
43697;DHT22;29301;47.620;19.560;2022-11-27T05:39:33;5.20;99.90
43697;DHT22;29301;47.620;19.560;2022-11-27T05:41:59;5.10;99.90
43697;DHT22;29301;47.620;19.560;2022-11-27T05:44:25;5.10;99.90
43697;DHT22;29301;47.620;19.560;2022-11-27T05:46:51;5.10;99.90
43697;DHT22;29301;47.620;19.560;2022-11-27T05:49:17;5.10;99.90
43697;DHT22;29301;47.620;19.560;2022-11-27T05:51:42;5.10;99.90
43697;DHT22;29301;47.620;19.560;2022-11-27T05:54:08;5.10;99.90
43697;DHT22;29301;47.620;19.560;2022-11-27T05:56:34;5.10;99.90
43697;DHT22;29301;47.620;19.560;2022-11-27T05:59:00;5.10;99.90
43697;DHT22;29301;47.620;19.560;2022-11-27T06:01:26;5.10;99.90
43697;DHT22;29301;47.620;19.560;2022-11-27T06:03:51;5.10;99.90
43697;DHT22;29301;47.620;19.560;2022-11-27T06:06:18;5.10;99.90
43697;DHT22;29301;47.620;19.560;2022-11-27T06:08:45;5.10;99.90
43697;DHT22;29301;47.620;19.560;2022-11-27T06:11:13;5.10;99.90
43697;DHT22;29301;47.620;19.560;2022-11-27T06:13:39;5.10;99.90
43697;DHT22;29301;47.620;19.560;2022-11-27T06:16:13;5.10;99.90
43697;DHT22;29301;47.620;19.560;2022-11-27T06:18:39;5.10;99.90
43697;DHT22;29301;47.620;19.560;2022-11-27T06:21:10;5.10;99.90
43697;DHT22;29301;47.620;19.560;2022-11-27T06:23:36;5.10;99.90
43697;DHT22;29301;47.620;19.560;2022-11-27T06:26:13;5.10;99.90
43697;DHT22;29301;47.620;19.560;2022-11-27T06:28:40;5.10;99.90
43697;DHT22;29301;47.620;19.560;2022-11-27T06:31:11;5.10;99.90
43697;DHT22;29301;47.620;19.560;2022-11-27T06:33:38;5.10;99.90
43697;DHT22;29301;47.620;19.560;2022-11-27T06:36:04;5.10;99.90
43697;DHT22;29301;47.620;19.560;2022-11-27T06:38:34;5.10;99.90
43697;DHT22;29301;47.620;19.560;2022-11-27T06:41:20;5.10;99.90
43697;DHT22;29301;47.620;19.560;2022-11-27T06:43:46;5.10;99.90
43697;DHT22;29301;47.620;19.560;2022-11-27T06:46:14;5.00;99.90
43697;DHT22;29301;47.620;19.560;2022-11-27T06:48:42;5.00;99.90
43697;DHT22;29301;47.620;19.560;2022-11-27T06:51:10;5.10;99.90
43697;DHT22;29301;47.620;19.560;2022-11-27T06:53:37;5.10;99.90
43697;DHT22;29301;47.620;19.560;2022-11-27T06:56:03;5.10;99.90
43697;DHT22;29301;47.620;19.560;2022-11-27T06:58:29;5.10;99.90
43697;DHT22;29301;47.620;19.560;2022-11-27T07:01:00;5.10;99.90
43697;DHT22;29301;47.620;19.560;2022-11-27T07:03:26;5.20;99.90
43697;DHT22;29301;47.620;19.560;2022-11-27T07:05:52;5.10;99.90
43697;DHT22;29301;47.620;19.560;2022-11-27T07:08:18;5.10;99.90
43697;DHT22;29301;47.620;19.560;2022-11-27T07:10:44;5.10;99.90
43697;DHT22;29301;47.620;19.560;2022-11-27T07:13:10;5.10;99.90
43697;DHT22;29301;47.620;19.560;2022-11-27T07:15:35;5.10;99.90
43697;DHT22;29301;47.620;19.560;2022-11-27T07:18:01;5.10;99.90
43697;DHT22;29301;47.620;19.560;2022-11-27T07:20:27;5.10;99.90
43697;DHT22;29301;47.620;19.560;2022-11-27T07:22:54;5.10;99.90
43697;DHT22;29301;47.620;19.560;2022-11-27T07:25:19;5.10;99.90
43697;DHT22;29301;47.620;19.560;2022-11-27T07:27:45;5.10;99.90
43697;DHT22;29301;47.620;19.560;2022-11-27T07:30:11;5.10;99.90
43697;DHT22;29301;47.620;19.560;2022-11-27T07:32:37;5.20;99.90
43697;DHT22;29301;47.620;19.560;2022-11-27T07:35:03;5.20;99.90
43697;DHT22;29301;47.620;19.560;2022-11-27T07:37:30;5.20;99.90
43697;DHT22;29301;47.620;19.560;2022-11-27T07:39:56;5.20;99.90
43697;DHT22;29301;47.620;19.560;2022-11-27T07:42:22;5.20;99.90
43697;DHT22;29301;47.620;19.560;2022-11-27T07:44:47;5.20;99.90
43697;DHT22;29301;47.620;19.560;2022-11-27T07:47:13;5.20;99.90
43697;DHT22;29301;47.620;19.560;2022-11-27T07:49:39;5.10;99.90
43697;DHT22;29301;47.620;19.560;2022-11-27T07:52:05;5.10;99.90
43697;DHT22;29301;47.620;19.560;2022-11-27T07:54:30;5.00;99.90
43697;DHT22;29301;47.620;19.560;2022-11-27T07:56:56;5.00;99.90
43697;DHT22;29301;47.620;19.560;2022-11-27T07:59:22;5.00;99.90
43697;DHT22;29301;47.620;19.560;2022-11-27T08:01:47;5.00;99.90
43697;DHT22;29301;47.620;19.560;2022-11-27T08:04:13;5.00;99.90
43697;DHT22;29301;47.620;19.560;2022-11-27T08:06:38;4.90;99.90
43697;DHT22;29301;47.620;19.560;2022-11-27T08:09:04;5.00;99.90
43697;DHT22;29301;47.620;19.560;2022-11-27T08:11:31;5.00;99.90
43697;DHT22;29301;47.620;19.560;2022-11-27T08:14:04;4.90;99.90
43697;DHT22;29301;47.620;19.560;2022-11-27T08:16:30;4.90;99.90
43697;DHT22;29301;47.620;19.560;2022-11-27T08:18:57;5.00;99.90
43697;DHT22;29301;47.620;19.560;2022-11-27T08:21:23;5.00;99.90
43697;DHT22;29301;47.620;19.560;2022-11-27T08:23:49;5.00;99.90
43697;DHT22;29301;47.620;19.560;2022-11-27T08:26:14;5.10;99.90
43697;DHT22;29301;47.620;19.560;2022-11-27T08:28:41;5.10;99.90
43697;DHT22;29301;47.620;19.560;2022-11-27T08:31:08;5.10;99.90
43697;DHT22;29301;47.620;19.560;2022-11-27T08:33:34;5.10;99.90
43697;DHT22;29301;47.620;19.560;2022-11-27T08:36:01;5.20;99.90
43697;DHT22;29301;47.620;19.560;2022-11-27T08:38:26;5.10;99.90
43697;DHT22;29301;47.620;19.560;2022-11-27T08:41:00;5.20;99.90
43697;DHT22;29301;47.620;19.560;2022-11-27T08:43:27;5.10;99.90
43697;DHT22;29301;47.620;19.560;2022-11-27T08:45:53;5.20;99.90
43697;DHT22;29301;47.620;19.560;2022-11-27T08:48:20;5.20;99.90
43697;DHT22;29301;47.620;19.560;2022-11-27T08:50:47;5.20;99.90
43697;DHT22;29301;47.620;19.560;2022-11-27T08:53:14;5.30;99.90
43697;DHT22;29301;47.620;19.560;2022-11-27T08:55:40;5.30;99.90
43697;DHT22;29301;47.620;19.560;2022-11-27T08:58:06;5.20;99.90
43697;DHT22;29301;47.620;19.560;2022-11-27T09:00:32;5.20;99.90
43697;DHT22;29301;47.620;19.560;2022-11-27T09:02:58;5.20;99.90
43697;DHT22;29301;47.620;19.560;2022-11-27T09:05:25;5.30;99.90
43697;DHT22;29301;47.620;19.560;2022-11-27T09:07:50;5.30;99.90
43697;DHT22;29301;47.620;19.560;2022-11-27T09:10:16;5.70;99.90
43697;DHT22;29301;47.620;19.560;2022-11-27T09:12:42;6.00;99.90
43697;DHT22;29301;47.620;19.560;2022-11-27T09:15:12;6.10;99.90
43697;DHT22;29301;47.620;19.560;2022-11-27T09:17:38;6.20;99.90
43697;DHT22;29301;47.620;19.560;2022-11-27T09:20:05;6.50;99.90
43697;DHT22;29301;47.620;19.560;2022-11-27T09:22:32;6.70;99.90
43697;DHT22;29301;47.620;19.560;2022-11-27T09:24:58;7.00;99.90
43697;DHT22;29301;47.620;19.560;2022-11-27T09:27:24;6.90;99.90
43697;DHT22;29301;47.620;19.560;2022-11-27T09:29:50;6.50;99.90
43697;DHT22;29301;47.620;19.560;2022-11-27T09:32:16;6.30;99.90
43697;DHT22;29301;47.620;19.560;2022-11-27T09:34:41;6.10;99.90
43697;DHT22;29301;47.620;19.560;2022-11-27T09:37:07;6.00;99.90
43697;DHT22;29301;47.620;19.560;2022-11-27T09:39:34;6.00;99.90
43697;DHT22;29301;47.620;19.560;2022-11-27T09:42:04;6.00;99.90
43697;DHT22;29301;47.620;19.560;2022-11-27T09:44:42;6.10;99.90
43697;DHT22;29301;47.620;19.560;2022-11-27T09:47:34;6.00;99.90
43697;DHT22;29301;47.620;19.560;2022-11-27T09:50:26;6.00;99.90
43697;DHT22;29301;47.620;19.560;2022-11-27T09:53:00;5.90;99.90
43697;DHT22;29301;47.620;19.560;2022-11-27T09:55:38;5.90;99.90
43697;DHT22;29301;47.620;19.560;2022-11-27T10:00:43;5.80;99.90
43697;DHT22;29301;47.620;19.560;2022-11-27T10:03:20;5.80;99.90
43697;DHT22;29301;47.620;19.560;2022-11-27T10:06:19;5.80;99.90
43697;DHT22;29301;47.620;19.560;2022-11-27T10:11:52;5.80;99.90
43697;DHT22;29301;47.620;19.560;2022-11-27T10:14:39;5.90;99.90
43697;DHT22;29301;47.620;19.560;2022-11-27T10:17:17;5.90;99.90
43697;DHT22;29301;47.620;19.560;2022-11-27T10:26:03;5.80;99.90
43697;DHT22;29301;47.620;19.560;2022-11-27T10:31:10;5.80;99.90
43697;DHT22;29301;47.620;19.560;2022-11-27T10:33:53;5.80;99.90
43697;DHT22;29301;47.620;19.560;2022-11-27T10:39:03;6.40;99.90
43697;DHT22;29301;47.620;19.560;2022-11-27T10:41:40;7.40;99.90
43697;DHT22;29301;47.620;19.560;2022-11-27T10:44:29;8.30;99.90
43697;DHT22;29301;47.620;19.560;2022-11-27T10:47:02;9.00;99.90
43697;DHT22;29301;47.620;19.560;2022-11-27T10:49:29;9.20;99.90
43697;DHT22;29301;47.620;19.560;2022-11-27T10:51:55;9.40;99.90
43697;DHT22;29301;47.620;19.560;2022-11-27T10:54:31;9.60;99.90
43697;DHT22;29301;47.620;19.560;2022-11-27T10:59:35;9.70;99.90
43697;DHT22;29301;47.620;19.560;2022-11-27T11:02:02;9.90;99.90
43697;DHT22;29301;47.620;19.560;2022-11-27T11:04:30;9.90;99.90
43697;DHT22;29301;47.620;19.560;2022-11-27T11:06:57;10.00;99.90
43697;DHT22;29301;47.620;19.560;2022-11-27T11:11:48;10.00;99.90
43697;DHT22;29301;47.620;19.560;2022-11-27T11:16:41;9.70;99.90
43697;DHT22;29301;47.620;19.560;2022-11-27T11:19:21;9.60;99.90
43697;DHT22;29301;47.620;19.560;2022-11-27T11:21:47;9.20;99.90
43697;DHT22;29301;47.620;19.560;2022-11-27T11:27:11;8.20;99.90
43697;DHT22;29301;47.620;19.560;2022-11-27T11:30:04;7.80;99.90
43697;DHT22;29301;47.620;19.560;2022-11-27T11:32:32;7.50;99.90
43697;DHT22;29301;47.620;19.560;2022-11-27T11:35:09;7.30;99.90
43697;DHT22;29301;47.620;19.560;2022-11-27T11:37:38;7.30;99.90
43697;DHT22;29301;47.620;19.560;2022-11-27T11:40:07;7.20;99.90
43697;DHT22;29301;47.620;19.560;2022-11-27T11:42:35;7.10;99.90
43697;DHT22;29301;47.620;19.560;2022-11-27T11:47:30;6.90;99.90
43697;DHT22;29301;47.620;19.560;2022-11-27T11:49:57;6.90;99.90
43697;DHT22;29301;47.620;19.560;2022-11-27T11:55:35;6.80;99.90
43697;DHT22;29301;47.620;19.560;2022-11-27T12:00:41;6.60;99.90
43697;DHT22;29301;47.620;19.560;2022-11-27T12:03:58;6.40;99.90
43697;DHT22;29301;47.620;19.560;2022-11-27T12:09:29;6.50;99.90
43697;DHT22;29301;47.620;19.560;2022-11-27T12:12:00;6.60;99.90
43697;DHT22;29301;47.620;19.560;2022-11-27T12:14:51;6.60;99.90
43697;DHT22;29301;47.620;19.560;2022-11-27T12:20:13;6.60;99.90
43697;DHT22;29301;47.620;19.560;2022-11-27T12:45:26;6.50;99.90
43697;DHT22;29301;47.620;19.560;2022-11-27T12:53:28;6.70;99.90
43697;DHT22;29301;47.620;19.560;2022-11-27T12:56:07;6.50;99.90
43697;DHT22;29301;47.620;19.560;2022-11-27T12:58:39;6.30;99.90
43697;DHT22;29301;47.620;19.560;2022-11-27T13:01:10;6.30;99.90
43697;DHT22;29301;47.620;19.560;2022-11-27T13:06:55;6.10;99.90
43697;DHT22;29301;47.620;19.560;2022-11-27T13:09:59;5.90;99.90
43697;DHT22;29301;47.620;19.560;2022-11-27T13:13:22;5.80;99.90
43697;DHT22;29301;47.620;19.560;2022-11-27T13:15:49;5.80;99.90
43697;DHT22;29301;47.620;19.560;2022-11-27T13:18:30;5.90;99.90
43697;DHT22;29301;47.620;19.560;2022-11-27T13:20:59;5.90;99.90
43697;DHT22;29301;47.620;19.560;2022-11-27T13:23:32;5.90;99.90
43697;DHT22;29301;47.620;19.560;2022-11-27T13:26:02;5.90;99.90
43697;DHT22;29301;47.620;19.560;2022-11-27T13:28:45;5.90;99.90
43697;DHT22;29301;47.620;19.560;2022-11-27T13:31:18;5.80;99.90
43697;DHT22;29301;47.620;19.560;2022-11-27T13:33:45;5.90;99.90
43697;DHT22;29301;47.620;19.560;2022-11-27T13:36:23;5.90;99.90
43697;DHT22;29301;47.620;19.560;2022-11-27T13:39:00;5.80;99.90
43697;DHT22;29301;47.620;19.560;2022-11-27T13:41:32;5.80;99.90
43697;DHT22;29301;47.620;19.560;2022-11-27T13:43:59;5.90;99.90
43697;DHT22;29301;47.620;19.560;2022-11-27T13:46:31;5.90;99.90
43697;DHT22;29301;47.620;19.560;2022-11-27T13:49:06;5.90;99.90
43697;DHT22;29301;47.620;19.560;2022-11-27T13:51:37;5.90;99.90
43697;DHT22;29301;47.620;19.560;2022-11-27T13:54:17;5.90;99.90
43697;DHT22;29301;47.620;19.560;2022-11-27T13:56:44;5.90;99.90
43697;DHT22;29301;47.620;19.560;2022-11-27T13:59:23;5.90;99.90
43697;DHT22;29301;47.620;19.560;2022-11-27T14:02:02;5.80;99.90
43697;DHT22;29301;47.620;19.560;2022-11-27T14:04:29;5.80;99.90
43697;DHT22;29301;47.620;19.560;2022-11-27T14:07:08;5.90;99.90
43697;DHT22;29301;47.620;19.560;2022-11-27T14:09:46;5.90;99.90
43697;DHT22;29301;47.620;19.560;2022-11-27T14:14:59;6.00;99.90
43697;DHT22;29301;47.620;19.560;2022-11-27T14:17:34;5.90;99.90
43697;DHT22;29301;47.620;19.560;2022-11-27T14:22:45;5.90;99.90
43697;DHT22;29301;47.620;19.560;2022-11-27T14:25:25;5.90;99.90
43697;DHT22;29301;47.620;19.560;2022-11-27T14:30:54;5.90;99.90
43697;DHT22;29301;47.620;19.560;2022-11-27T14:33:32;5.80;99.90
43697;DHT22;29301;47.620;19.560;2022-11-27T14:36:03;5.80;99.90
43697;DHT22;29301;47.620;19.560;2022-11-27T14:38:33;5.90;99.90
43697;DHT22;29301;47.620;19.560;2022-11-27T14:41:16;5.90;99.90
43697;DHT22;29301;47.620;19.560;2022-11-27T14:43:42;5.80;99.90
43697;DHT22;29301;47.620;19.560;2022-11-27T14:46:17;5.80;99.90
43697;DHT22;29301;47.620;19.560;2022-11-27T14:48:49;5.80;99.90
43697;DHT22;29301;47.620;19.560;2022-11-27T14:51:25;5.80;99.90
43697;DHT22;29301;47.620;19.560;2022-11-27T14:54:00;5.90;99.90
43697;DHT22;29301;47.620;19.560;2022-11-27T14:56:38;5.90;99.90
43697;DHT22;29301;47.620;19.560;2022-11-27T14:59:04;5.90;99.90
43697;DHT22;29301;47.620;19.560;2022-11-27T15:01:33;5.90;99.90
43697;DHT22;29301;47.620;19.560;2022-11-27T15:04:01;5.90;99.90
43697;DHT22;29301;47.620;19.560;2022-11-27T15:06:39;5.80;99.90
43697;DHT22;29301;47.620;19.560;2022-11-27T15:09:14;5.80;99.90
43697;DHT22;29301;47.620;19.560;2022-11-27T15:11:40;5.80;99.90
43697;DHT22;29301;47.620;19.560;2022-11-27T15:14:11;5.80;99.90
43697;DHT22;29301;47.620;19.560;2022-11-27T15:16:44;5.80;99.90
43697;DHT22;29301;47.620;19.560;2022-11-27T15:19:22;5.80;99.90
43697;DHT22;29301;47.620;19.560;2022-11-27T15:21:50;5.90;99.90
43697;DHT22;29301;47.620;19.560;2022-11-27T15:26:53;5.90;99.90
43697;DHT22;29301;47.620;19.560;2022-11-27T15:29:33;5.80;99.90
43697;DHT22;29301;47.620;19.560;2022-11-27T15:32:01;5.90;99.90
43697;DHT22;29301;47.620;19.560;2022-11-27T15:34:29;5.90;99.90
43697;DHT22;29301;47.620;19.560;2022-11-27T15:36:56;6.10;99.90
43697;DHT22;29301;47.620;19.560;2022-11-27T15:39:26;6.10;99.90
43697;DHT22;29301;47.620;19.560;2022-11-27T15:42:00;6.00;99.90
43697;DHT22;29301;47.620;19.560;2022-11-27T15:44:30;5.90;99.90
43697;DHT22;29301;47.620;19.560;2022-11-27T15:46:58;5.90;99.90
43697;DHT22;29301;47.620;19.560;2022-11-27T15:49:24;5.90;99.90
43697;DHT22;29301;47.620;19.560;2022-11-27T15:51:50;5.80;99.90
43697;DHT22;29301;47.620;19.560;2022-11-27T15:54:16;5.70;99.90
43697;DHT22;29301;47.620;19.560;2022-11-27T15:56:42;5.70;99.90
43697;DHT22;29301;47.620;19.560;2022-11-27T15:59:08;5.70;99.90
43697;DHT22;29301;47.620;19.560;2022-11-27T16:01:35;6.00;99.90
43697;DHT22;29301;47.620;19.560;2022-11-27T16:04:01;6.00;99.90
43697;DHT22;29301;47.620;19.560;2022-11-27T16:06:27;5.90;99.90
43697;DHT22;29301;47.620;19.560;2022-11-27T16:08:57;5.80;99.90
43697;DHT22;29301;47.620;19.560;2022-11-27T16:11:25;5.80;99.90
43697;DHT22;29301;47.620;19.560;2022-11-27T16:13:51;5.70;99.90
43697;DHT22;29301;47.620;19.560;2022-11-27T16:16:17;5.60;99.90
43697;DHT22;29301;47.620;19.560;2022-11-27T16:18:42;5.50;99.90
43697;DHT22;29301;47.620;19.560;2022-11-27T16:21:10;5.50;99.90
43697;DHT22;29301;47.620;19.560;2022-11-27T16:23:37;5.80;99.90
43697;DHT22;29301;47.620;19.560;2022-11-27T16:26:04;6.00;99.90
43697;DHT22;29301;47.620;19.560;2022-11-27T16:28:30;6.00;99.90
43697;DHT22;29301;47.620;19.560;2022-11-27T16:30:58;5.80;99.90
43697;DHT22;29301;47.620;19.560;2022-11-27T16:33:28;5.70;99.90
43697;DHT22;29301;47.620;19.560;2022-11-27T16:35:55;5.60;99.90
43697;DHT22;29301;47.620;19.560;2022-11-27T16:38:20;5.60;99.90
43697;DHT22;29301;47.620;19.560;2022-11-27T16:40:49;5.50;99.90
43697;DHT22;29301;47.620;19.560;2022-11-27T16:43:15;5.50;99.90
43697;DHT22;29301;47.620;19.560;2022-11-27T16:45:41;5.50;99.90
43697;DHT22;29301;47.620;19.560;2022-11-27T16:48:07;5.50;99.90
43697;DHT22;29301;47.620;19.560;2022-11-27T16:50:32;5.40;99.90
43697;DHT22;29301;47.620;19.560;2022-11-27T16:52:58;5.50;99.90
43697;DHT22;29301;47.620;19.560;2022-11-27T16:55:25;5.40;99.90
43697;DHT22;29301;47.620;19.560;2022-11-27T16:57:51;5.50;99.90
43697;DHT22;29301;47.620;19.560;2022-11-27T17:00:17;5.50;99.90
43697;DHT22;29301;47.620;19.560;2022-11-27T17:02:42;5.70;99.90
43697;DHT22;29301;47.620;19.560;2022-11-27T17:05:08;5.70;99.90
43697;DHT22;29301;47.620;19.560;2022-11-27T17:07:34;5.70;99.90
43697;DHT22;29301;47.620;19.560;2022-11-27T17:09:59;5.80;99.90
43697;DHT22;29301;47.620;19.560;2022-11-27T17:12:25;5.80;99.90
43697;DHT22;29301;47.620;19.560;2022-11-27T17:14:51;5.80;99.90
43697;DHT22;29301;47.620;19.560;2022-11-27T17:17:16;5.70;99.90
43697;DHT22;29301;47.620;19.560;2022-11-27T17:19:42;5.80;99.90
43697;DHT22;29301;47.620;19.560;2022-11-27T17:22:08;5.80;99.90
43697;DHT22;29301;47.620;19.560;2022-11-27T17:24:34;5.80;99.90
43697;DHT22;29301;47.620;19.560;2022-11-27T17:27:02;5.80;99.90
43697;DHT22;29301;47.620;19.560;2022-11-27T17:29:28;5.80;99.90